createdAt,value
2019-05-07T00:01:42.350Z,7.17
2019-05-07T00:04:08.756Z,9.23
2019-05-07T00:06:35.188Z,7.60
2019-05-07T00:09:03.195Z,6.97
2019-05-07T00:11:33.115Z,5.70
2019-05-07T00:13:59.603Z,6.00
2019-05-07T00:16:26.002Z,7.10
2019-05-07T00:18:52.595Z,7.00
2019-05-07T00:21:19.005Z,7.40
2019-05-07T00:23:45.378Z,6.73
2019-05-07T00:26:13.206Z,7.93
2019-05-07T00:28:39.841Z,8.93
2019-05-07T00:31:06.213Z,7.33
2019-05-07T00:33:33.668Z,7.77
2019-05-07T00:36:07.832Z,6.47
2019-05-07T00:38:38.900Z,6.33
2019-05-07T00:41:07.230Z,8.20
2019-05-07T00:43:34.580Z,9.90
2019-05-07T00:46:02.814Z,12.20
2019-05-07T00:48:29.214Z,15.07
2019-05-07T00:50:57.458Z,10.87
2019-05-07T00:53:23.907Z,12.33
2019-05-07T00:55:52.544Z,8.30
2019-05-07T00:58:19.113Z,10.37
2019-05-07T01:00:45.496Z,8.03
2019-05-07T01:03:12.887Z,7.67
2019-05-07T01:05:39.415Z,8.77
2019-05-07T01:08:05.780Z,7.67
2019-05-07T01:10:32.967Z,8.43
2019-05-07T01:12:59.523Z,9.77
2019-05-07T01:15:30.687Z,8.43
2019-05-07T01:17:54.036Z,8.57
2019-05-07T01:20:22.148Z,7.33
2019-05-07T01:22:48.528Z,7.40
2019-05-07T01:25:14.888Z,6.97
2019-05-07T01:27:42.660Z,6.77
2019-05-07T01:30:09.953Z,7.43
2019-05-07T01:32:42.523Z,6.80
2019-05-07T01:35:12.857Z,7.73
2019-05-07T01:37:39.024Z,7.83
2019-05-07T01:40:05.392Z,7.23
2019-05-07T01:42:32.684Z,7.07
2019-05-07T01:44:59.649Z,6.90
2019-05-07T01:47:26.062Z,7.00
2019-05-07T01:49:55.170Z,6.90
2019-05-07T01:52:22.539Z,6.57
2019-05-07T01:54:48.759Z,6.50
2019-05-07T01:57:15.119Z,10.13
2019-05-07T01:59:42.767Z,10.97
2019-05-07T02:02:17.004Z,8.97
2019-05-07T02:04:45.304Z,9.93
2019-05-07T02:07:22.767Z,15.53
2019-05-07T02:09:57.286Z,12.40
2019-05-07T02:12:32.012Z,12.00
2019-05-07T02:14:58.406Z,10.40
2019-05-07T02:17:24.797Z,9.70
2019-05-07T02:19:52.763Z,7.53
2019-05-07T02:22:19.241Z,8.13
2019-05-07T02:24:45.632Z,7.20
2019-05-07T02:27:12.592Z,7.03
2019-05-07T02:29:40.266Z,7.03
2019-05-07T02:32:07.746Z,8.20
2019-05-07T02:34:34.546Z,7.63
2019-05-07T02:37:04.025Z,6.60
2019-05-07T02:39:44.524Z,6.70
2019-05-07T02:42:13.050Z,6.80
2019-05-07T02:44:58.013Z,7.53
2019-05-07T02:47:24.655Z,6.83
2019-05-07T02:49:53.590Z,6.87
2019-05-07T02:52:25.953Z,9.53
2019-05-07T02:55:03.493Z,7.90
2019-05-07T02:57:29.385Z,8.07
2019-05-07T02:59:55.731Z,8.83
2019-05-07T03:02:24.145Z,7.97
2019-05-07T03:04:53.108Z,8.80
2019-05-07T03:07:19.006Z,7.83
2019-05-07T03:09:45.402Z,7.37
2019-05-07T03:12:13.039Z,7.67
2019-05-07T03:14:39.947Z,6.43
2019-05-07T03:17:06.314Z,7.33
2019-05-07T03:19:34.687Z,7.37
2019-05-07T03:22:03.754Z,6.93
2019-05-07T03:24:37.163Z,8.23
2019-05-07T03:27:03.673Z,7.80
2019-05-07T03:29:33.025Z,7.33
2019-05-07T03:32:05.371Z,7.67
2019-05-07T03:34:37.314Z,7.63
2019-05-07T03:37:06.643Z,7.53
2019-05-07T03:39:33.791Z,7.97
2019-05-07T03:42:03.181Z,11.73
2019-05-07T03:44:44.487Z,12.50
2019-05-07T03:47:33.165Z,10.23
2019-05-07T03:49:58.610Z,12.13
2019-05-07T03:52:25.048Z,12.13
2019-05-07T03:54:53.927Z,9.10
2019-05-07T03:57:19.699Z,9.10
2019-05-07T03:59:46.076Z,9.77
2019-05-07T04:02:14.200Z,9.20
2019-05-07T04:04:43.017Z,9.83
2019-05-07T04:07:08.831Z,9.83
2019-05-07T04:09:35.219Z,9.93
2019-05-07T04:12:03.904Z,9.40
2019-05-07T04:14:29.752Z,9.30
2019-05-07T04:17:13.306Z,8.27
2019-05-07T04:19:24.389Z,8.60
2019-05-07T04:21:53.362Z,8.63
2019-05-07T04:24:23.348Z,8.63
2019-05-07T04:26:53.563Z,8.80
2019-05-07T04:29:19.390Z,9.73
2019-05-07T04:31:47.548Z,9.83
2019-05-07T04:34:15.828Z,10.93
2019-05-07T04:36:44.138Z,11.90
2019-05-07T04:39:12.976Z,12.60
2019-05-07T04:41:38.757Z,13.67
2019-05-07T04:44:05.119Z,12.60
2019-05-07T04:46:33.376Z,13.67
2019-05-07T04:48:59.669Z,13.10
2019-05-07T04:51:27.915Z,12.30
2019-05-07T04:53:54.459Z,13.87
2019-05-07T04:56:23.903Z,13.40
2019-05-07T04:58:49.185Z,12.53
2019-05-07T05:01:17.486Z,12.40
2019-05-07T05:03:43.935Z,14.30
2019-05-07T05:06:13.358Z,15.23
2019-05-07T05:08:38.497Z,14.80
2019-05-07T05:11:04.878Z,13.43
2019-05-07T05:13:33.016Z,12.60
2019-05-07T05:16:02.039Z,14.33
2019-05-07T05:18:28.464Z,13.17
2019-05-07T05:20:56.709Z,16.17
2019-05-07T05:23:26.068Z,15.60
2019-05-07T05:25:52.496Z,13.63
2019-05-07T05:28:18.803Z,14.53
2019-05-07T05:30:47.149Z,13.40
2019-05-07T05:33:13.485Z,13.00
2019-05-07T05:35:40.025Z,14.33
2019-05-07T05:38:06.372Z,14.83
2019-05-07T05:40:33.857Z,20.30
2019-05-07T05:43:13.957Z,39.57
2019-05-07T05:45:42.736Z,38.33
2019-05-07T05:48:09.322Z,11.60
2019-05-07T05:50:46.990Z,10.57
2019-05-07T05:53:21.839Z,10.63
2019-05-07T05:55:48.867Z,10.17
2019-05-07T05:58:19.698Z,11.90
2019-05-07T06:00:56.748Z,9.30
2019-05-07T06:03:43.138Z,9.43
2019-05-07T06:06:12.789Z,7.70
2019-05-07T06:08:43.951Z,6.80
2019-05-07T06:11:15.015Z,5.27
2019-05-07T06:14:02.109Z,6.57
2019-05-07T06:16:36.612Z,5.77
2019-05-07T06:19:04.226Z,6.87
2019-05-07T06:21:49.160Z,5.50
2019-05-07T06:24:20.634Z,5.83
2019-05-07T06:26:48.263Z,4.53
2019-05-07T06:29:14.749Z,7.47
2019-05-07T06:31:42.164Z,6.10
2019-05-07T06:34:08.740Z,5.10
2019-05-07T06:36:37.049Z,4.93
2019-05-07T06:39:09.204Z,5.80
2019-05-07T06:41:54.120Z,5.70
2019-05-07T06:44:22.444Z,5.00
2019-05-07T06:46:48.988Z,5.33
2019-05-07T06:49:15.380Z,5.30
2019-05-07T06:51:42.040Z,5.03
2019-05-07T06:54:08.548Z,5.20
2019-05-07T06:56:35.210Z,4.97
2019-05-07T06:59:06.185Z,6.20
2019-05-07T07:01:34.567Z,7.43
2019-05-07T07:04:05.843Z,6.63
2019-05-07T07:06:34.227Z,6.17
2019-05-07T07:09:14.631Z,6.10
2019-05-07T07:11:42.945Z,6.40
2019-05-07T07:14:09.376Z,6.57
2019-05-07T07:16:35.721Z,5.35
2019-05-07T07:19:03.337Z,3.55
2019-05-07T07:21:29.913Z,5.20
2019-05-07T07:23:56.270Z,3.83
2019-05-07T07:26:22.706Z,3.58
2019-05-07T07:28:49.091Z,4.28
2019-05-07T07:31:26.065Z,4.90
2019-05-07T07:33:54.174Z,3.30
2019-05-07T07:36:22.629Z,2.87
2019-05-07T07:38:49.064Z,2.53
2019-05-07T07:41:26.403Z,4.00
2019-05-07T07:43:52.763Z,4.20
2019-05-07T07:46:19.136Z,2.50
2019-05-07T07:48:45.632Z,3.03
2019-05-07T07:51:13.854Z,3.53
2019-05-07T07:53:42.395Z,3.23
2019-05-07T07:56:25.774Z,3.93
2019-05-07T07:59:09.300Z,2.03
2019-05-07T08:01:37.634Z,1.93
2019-05-07T08:04:04.087Z,2.50
2019-05-07T08:06:32.627Z,2.93
2019-05-07T08:08:59.060Z,3.40
2019-05-07T08:11:25.549Z,3.87
2019-05-07T08:13:52.930Z,2.83
2019-05-07T08:16:19.403Z,2.67
2019-05-07T08:18:46.902Z,4.90
2019-05-07T08:21:13.334Z,5.70
2019-05-07T08:23:53.244Z,4.90
2019-05-07T08:26:21.781Z,4.00
2019-05-07T08:28:47.995Z,4.20
2019-05-07T08:31:25.640Z,4.87
2019-05-07T08:33:55.002Z,5.77
2019-05-07T08:36:22.631Z,3.70
2019-05-07T08:38:52.841Z,3.60
2019-05-07T08:41:22.481Z,2.80
2019-05-07T08:43:52.327Z,3.17
2019-05-07T08:46:29.781Z,1.90
2019-05-07T08:48:56.151Z,4.63
2019-05-07T08:51:22.595Z,4.23
2019-05-07T08:54:04.352Z,3.53
2019-05-07T08:56:31.913Z,3.20
2019-05-07T08:58:58.515Z,2.23
2019-05-07T09:01:25.906Z,1.97
2019-05-07T09:03:52.275Z,1.57
2019-05-07T09:06:22.077Z,2.30
2019-05-07T09:08:48.990Z,2.50
2019-05-07T09:11:15.577Z,2.42
2019-05-07T09:13:42.141Z,2.92
2019-05-07T09:16:08.576Z,2.55
2019-05-07T09:18:34.934Z,2.62
2019-05-07T09:21:02.213Z,2.72
2019-05-07T09:23:28.717Z,2.50
2019-05-07T09:25:55.202Z,1.70
2019-05-07T09:28:22.302Z,2.45
2019-05-07T09:31:07.973Z,3.25
2019-05-07T09:33:36.258Z,2.72
2019-05-07T09:36:03.910Z,1.32
2019-05-07T09:38:30.287Z,2.08
2019-05-07T09:40:57.089Z,1.40
2019-05-07T09:43:23.730Z,2.35
2019-05-07T09:45:52.203Z,3.33
2019-05-07T09:48:18.331Z,2.62
2019-05-07T09:50:44.692Z,2.70
2019-05-07T09:53:12.744Z,2.05
2019-05-07T09:55:39.277Z,1.47
2019-05-07T09:58:05.673Z,2.20
2019-05-07T10:00:32.356Z,1.60
2019-05-07T10:02:59.032Z,2.40
2019-05-07T10:05:25.407Z,3.75
2019-05-07T10:07:52.603Z,1.57
2019-05-07T10:10:19.470Z,2.10
2019-05-07T10:12:52.539Z,2.08
2019-05-07T10:15:19.203Z,1.95
2019-05-07T10:17:47.485Z,2.52
2019-05-07T10:20:21.657Z,2.40
2019-05-07T10:22:42.985Z,1.47
2019-05-07T10:25:11.980Z,2.55
2019-05-07T10:27:41.641Z,1.72
2019-05-07T10:30:08.596Z,2.83
2019-05-07T10:32:35.056Z,3.95
2019-05-07T10:35:03.619Z,2.00
2019-05-07T10:37:31.875Z,2.05
2019-05-07T10:39:58.149Z,1.35
2019-05-07T10:42:24.535Z,1.35
2019-05-07T10:45:09.377Z,2.12
2019-05-07T10:47:41.864Z,1.27
2019-05-07T10:50:14.262Z,1.47
2019-05-07T10:52:42.364Z,1.22
2019-05-07T10:55:09.026Z,1.75
2019-05-07T10:57:35.408Z,1.40
2019-05-07T11:00:03.284Z,1.52
2019-05-07T11:02:32.430Z,1.82
2019-05-07T11:04:58.895Z,1.90
2019-05-07T11:07:25.271Z,1.55
2019-05-07T11:09:52.539Z,1.57
2019-05-07T11:12:19.081Z,1.57
2019-05-07T11:14:45.505Z,1.77
2019-05-07T11:17:32.519Z,1.30
2019-05-07T11:19:58.967Z,1.20
2019-05-07T11:22:25.418Z,1.32
2019-05-07T11:24:52.331Z,1.60
2019-05-07T11:27:18.784Z,1.40
2019-05-07T11:29:45.251Z,1.12
2019-05-07T11:32:12.354Z,1.65
2019-05-07T11:34:42.220Z,3.25
2019-05-07T11:37:08.820Z,1.92
2019-05-07T11:39:35.143Z,1.20
2019-05-07T11:42:09.488Z,2.12
2019-05-07T11:44:35.920Z,1.62
2019-05-07T11:47:06.713Z,6.22
2019-05-07T11:49:35.031Z,10.28
2019-05-07T11:52:03.305Z,5.72
2019-05-07T11:54:31.671Z,3.55
2019-05-07T11:56:57.873Z,2.75
2019-05-07T11:59:24.211Z,2.90
2019-05-07T12:01:52.808Z,1.67
2019-05-07T12:04:19.222Z,2.20
2019-05-07T12:06:45.588Z,2.17
2019-05-07T12:09:12.278Z,2.35
2019-05-07T12:11:38.722Z,1.90
2019-05-07T12:14:05.379Z,1.10
2019-05-07T12:16:32.226Z,1.60
2019-05-07T12:18:58.656Z,9.93
2019-05-07T12:21:25.147Z,8.13
2019-05-07T12:23:52.680Z,6.10
2019-05-07T12:26:19.086Z,3.80
2019-05-07T12:28:45.458Z,1.70
2019-05-07T12:31:25.740Z,2.07
2019-05-07T12:33:56.809Z,14.77
2019-05-07T12:36:23.224Z,3.70
2019-05-07T12:38:49.822Z,2.77
2019-05-07T12:41:34.261Z,2.20
2019-05-07T12:44:04.714Z,2.58
2019-05-07T12:46:33.678Z,2.90
2019-05-07T12:49:00.031Z,1.33
2019-05-07T12:51:34.593Z,2.40
2019-05-07T12:53:57.883Z,2.10
2019-05-07T12:56:24.265Z,1.60
2019-05-07T12:58:51.791Z,1.30
2019-05-07T13:01:21.827Z,2.30
2019-05-07T13:03:53.481Z,10.38
2019-05-07T13:06:21.958Z,2.55
2019-05-07T13:08:48.120Z,1.15
2019-05-07T13:11:14.493Z,1.10
2019-05-07T13:13:42.356Z,1.10
2019-05-07T13:16:08.841Z,1.10
2019-05-07T13:18:35.302Z,1.98
2019-05-07T13:21:02.458Z,1.40
2019-05-07T13:23:29.097Z,2.20
2019-05-07T13:25:55.636Z,1.57
2019-05-07T13:28:22.060Z,2.80
2019-05-07T13:30:48.535Z,17.40
2019-05-07T13:33:15.500Z,20.70
2019-05-07T13:35:44.409Z,19.23
2019-05-07T13:38:14.603Z,17.40
2019-05-07T13:40:42.921Z,10.23
2019-05-07T13:43:11.866Z,3.93
2019-05-07T13:45:41.642Z,5.23
2019-05-07T13:48:14.217Z,2.00
2019-05-07T13:50:41.985Z,2.23
2019-05-07T13:53:08.643Z,3.13
2019-05-07T13:55:35.030Z,1.60
2019-05-07T13:58:01.543Z,3.23
